sensor_id;sensor_type;location;lat;lon;timestamp;pressure;altitude;pressure_sealevel;temperature;humidity
83733;BME280;73710;49.968;8.338;2024-02-04T05:06:39;101492.91;;;9.51;100.00
83733;BME280;73710;49.968;8.338;2024-02-04T05:09:04;101509.47;;;9.53;100.00
83733;BME280;73710;49.968;8.338;2024-02-04T05:11:29;101504.22;;;9.53;100.00
83733;BME280;73710;49.968;8.338;2024-02-04T05:13:55;101506.78;;;9.56;100.00
83733;BME280;73710;49.968;8.338;2024-02-04T05:16:20;101507.59;;;9.57;100.00
83733;BME280;73710;49.968;8.338;2024-02-04T05:18:45;101508.47;;;9.57;100.00
83733;BME280;73710;49.968;8.338;2024-02-04T05:21:11;101509.41;;;9.55;100.00
83733;BME280;73710;49.968;8.338;2024-02-04T05:23:37;101508.66;;;9.51;100.00
83733;BME280;73710;49.968;8.338;2024-02-04T05:26:03;101505.22;;;9.49;100.00
83733;BME280;73710;49.968;8.338;2024-02-04T05:28:30;101505.38;;;9.45;100.00
83733;BME280;73710;49.968;8.338;2024-02-04T05:30:55;101514.06;;;9.47;100.00
83733;BME280;73710;49.968;8.338;2024-02-04T05:33:20;101501.94;;;9.43;100.00
83733;BME280;73710;49.968;8.338;2024-02-04T05:35:46;101510.66;;;9.43;100.00
83733;BME280;73710;49.968;8.338;2024-02-04T05:38:11;101514.09;;;9.45;100.00
83733;BME280;73710;49.968;8.338;2024-02-04T05:40:36;101516.88;;;9.41;100.00
83733;BME280;73710;49.968;8.338;2024-02-04T05:43:02;101517.63;;;9.44;100.00
83733;BME280;73710;49.968;8.338;2024-02-04T05:45:33;101510.88;;;9.37;100.00
83733;BME280;73710;49.968;8.338;2024-02-04T05:47:59;101515.25;;;9.37;100.00
83733;BME280;73710;49.968;8.338;2024-02-04T05:50:24;101523.25;;;9.32;100.00
83733;BME280;73710;49.968;8.338;2024-02-04T05:52:49;101517.06;;;9.35;100.00
83733;BME280;73710;49.968;8.338;2024-02-04T05:55:15;101505.66;;;9.36;100.00
83733;BME280;73710;49.968;8.338;2024-02-04T05:57:40;101518.88;;;9.33;100.00
83733;BME280;73710;49.968;8.338;2024-02-04T06:00:07;101518.00;;;9.32;100.00
83733;BME280;73710;49.968;8.338;2024-02-04T06:02:36;101510.13;;;9.32;100.00
83733;BME280;73710;49.968;8.338;2024-02-04T06:05:02;101509.31;;;9.30;100.00
83733;BME280;73710;49.968;8.338;2024-02-04T06:07:27;101504.19;;;9.26;100.00
83733;BME280;73710;49.968;8.338;2024-02-04T06:09:54;101506.00;;;9.24;100.00
83733;BME280;73710;49.968;8.338;2024-02-04T06:12:21;101510.31;;;9.26;100.00
83733;BME280;73710;49.968;8.338;2024-02-04T06:14:46;101507.56;;;9.31;100.00
83733;BME280;73710;49.968;8.338;2024-02-04T06:17:11;101510.28;;;9.28;100.00
83733;BME280;73710;49.968;8.338;2024-02-04T06:19:36;101515.56;;;9.26;100.00
83733;BME280;73710;49.968;8.338;2024-02-04T06:22:02;101519.06;;;9.27;100.00
83733;BME280;73710;49.968;8.338;2024-02-04T06:24:27;101519.81;;;9.30;100.00
83733;BME280;73710;49.968;8.338;2024-02-04T06:26:53;101505.75;;;9.33;100.00
83733;BME280;73710;49.968;8.338;2024-02-04T06:29:18;101519.75;;;9.33;100.00
83733;BME280;73710;49.968;8.338;2024-02-04T06:31:44;101507.47;;;9.34;100.00
83733;BME280;73710;49.968;8.338;2024-02-04T06:34:10;101496.25;;;9.29;100.00
83733;BME280;73710;49.968;8.338;2024-02-04T06:36:36;101503.38;;;9.25;100.00
83733;BME280;73710;49.968;8.338;2024-02-04T06:39:01;101500.59;;;9.30;100.00
83733;BME280;73710;49.968;8.338;2024-02-04T06:41:26;101502.25;;;9.32;100.00
83733;BME280;73710;49.968;8.338;2024-02-04T06:43:52;101503.19;;;9.31;100.00
83733;BME280;73710;49.968;8.338;2024-02-04T06:46:27;101509.25;;;9.33;100.00
83733;BME280;73710;49.968;8.338;2024-02-04T06:48:53;101511.00;;;9.33;100.00
83733;BME280;73710;49.968;8.338;2024-02-04T06:51:19;101490.13;;;9.28;100.00
83733;BME280;73710;49.968;8.338;2024-02-04T06:53:44;101501.56;;;9.26;100.00
83733;BME280;73710;49.968;8.338;2024-02-04T06:56:09;101505.13;;;9.25;100.00
83733;BME280;73710;49.968;8.338;2024-02-04T06:58:37;101499.81;;;9.26;100.00
83733;BME280;73710;49.968;8.338;2024-02-04T07:01:03;101497.06;;;9.31;100.00
83733;BME280;73710;49.968;8.338;2024-02-04T07:03:30;101492.66;;;9.31;100.00
83733;BME280;73710;49.968;8.338;2024-02-04T07:05:55;101497.16;;;9.28;100.00
83733;BME280;73710;49.968;8.338;2024-02-04T07:08:21;101490.19;;;9.27;100.00
83733;BME280;73710;49.968;8.338;2024-02-04T07:10:46;101480.44;;;9.30;100.00
83733;BME280;73710;49.968;8.338;2024-02-04T07:13:11;101470.72;;;9.34;100.00
83733;BME280;73710;49.968;8.338;2024-02-04T07:15:38;101478.47;;;9.37;100.00
83733;BME280;73710;49.968;8.338;2024-02-04T07:18:04;101491.56;;;9.38;100.00
83733;BME280;73710;49.968;8.338;2024-02-04T07:20:29;101494.25;;;9.37;100.00
83733;BME280;73710;49.968;8.338;2024-02-04T07:22:54;101491.41;;;9.43;100.00
83733;BME280;73710;49.968;8.338;2024-02-04T07:25:20;101498.34;;;9.45;100.00
83733;BME280;73710;49.968;8.338;2024-02-04T07:27:45;101486.94;;;9.46;100.00
83733;BME280;73710;49.968;8.338;2024-02-04T07:30:11;101496.41;;;9.52;100.00
83733;BME280;73710;49.968;8.338;2024-02-04T07:32:36;101495.53;;;9.51;100.00
83733;BME280;73710;49.968;8.338;2024-02-04T07:35:02;101493.72;;;9.53;100.00
83733;BME280;73710;49.968;8.338;2024-02-04T07:37:28;101496.19;;;9.58;100.00
83733;BME280;73710;49.968;8.338;2024-02-04T07:39:53;101479.56;;;9.57;100.00
83733;BME280;73710;49.968;8.338;2024-02-04T07:42:19;101491.84;;;9.57;100.00
83733;BME280;73710;49.968;8.338;2024-02-04T07:44:44;101494.53;;;9.55;100.00
83733;BME280;73710;49.968;8.338;2024-02-04T07:47:10;101497.91;;;9.59;100.00
83733;BME280;73710;49.968;8.338;2024-02-04T07:49:35;101494.47;;;9.57;100.00
83733;BME280;73710;49.968;8.338;2024-02-04T07:52:01;101497.09;;;9.57;100.00
83733;BME280;73710;49.968;8.338;2024-02-04T07:54:26;101515.41;;;9.60;100.00
83733;BME280;73710;49.968;8.338;2024-02-04T07:56:51;101509.41;;;9.56;100.00
83733;BME280;73710;49.968;8.338;2024-02-04T07:59:17;101511.91;;;9.59;100.00
83733;BME280;73710;49.968;8.338;2024-02-04T08:01:42;101496.00;;;9.64;100.00
83733;BME280;73710;49.968;8.338;2024-02-04T08:04:07;101502.16;;;9.63;100.00
83733;BME280;73710;49.968;8.338;2024-02-04T08:06:36;101500.06;;;9.74;100.00
83733;BME280;73710;49.968;8.338;2024-02-04T08:09:05;101515.06;;;9.70;100.00
83733;BME280;73710;49.968;8.338;2024-02-04T08:11:31;101487.72;;;9.76;100.00
83733;BME280;73710;49.968;8.338;2024-02-04T08:13:57;101498.16;;;9.79;100.00
83733;BME280;73710;49.968;8.338;2024-02-04T08:16:23;101493.66;;;9.82;100.00
83733;BME280;73710;49.968;8.338;2024-02-04T08:18:48;101500.59;;;9.83;100.00
83733;BME280;73710;49.968;8.338;2024-02-04T08:21:13;101494.41;;;9.86;100.00
83733;BME280;73710;49.968;8.338;2024-02-04T08:23:39;101498.97;;;9.81;100.00
83733;BME280;73710;49.968;8.338;2024-02-04T08:26:05;101484.09;;;9.80;100.00
83733;BME280;73710;49.968;8.338;2024-02-04T08:28:31;101499.78;;;9.81;100.00
83733;BME280;73710;49.968;8.338;2024-02-04T08:30:56;101503.41;;;9.79;100.00
83733;BME280;73710;49.968;8.338;2024-02-04T08:33:22;101513.13;;;9.75;100.00
83733;BME280;73710;49.968;8.338;2024-02-04T08:35:48;101520.06;;;9.78;100.00
83733;BME280;73710;49.968;8.338;2024-02-04T08:38:13;101512.53;;;9.67;100.00
83733;BME280;73710;49.968;8.338;2024-02-04T08:40:39;101496.88;;;9.64;100.00
83733;BME280;73710;49.968;8.338;2024-02-04T08:43:04;101504.84;;;9.61;100.00
83733;BME280;73710;49.968;8.338;2024-02-04T08:45:30;101499.13;;;9.75;100.00
83733;BME280;73710;49.968;8.338;2024-02-04T08:47:55;101506.84;;;9.81;100.00
83733;BME280;73710;49.968;8.338;2024-02-04T08:50:20;101498.38;;;9.98;100.00
83733;BME280;73710;49.968;8.338;2024-02-04T08:52:46;101515.06;;;9.97;100.00
83733;BME280;73710;49.968;8.338;2024-02-04T08:55:11;101512.38;;;9.98;100.00
83733;BME280;73710;49.968;8.338;2024-02-04T08:57:36;101520.69;;;10.14;100.00
83733;BME280;73710;49.968;8.338;2024-02-04T09:00:02;101492.66;;;10.13;100.00
83733;BME280;73710;49.968;8.338;2024-02-04T09:02:28;101471.94;;;10.28;100.00
83733;BME280;73710;49.968;8.338;2024-02-04T09:04:53;101471.09;;;10.28;100.00
83733;BME280;73710;49.968;8.338;2024-02-04T09:07:19;101461.31;;;10.31;100.00
83733;BME280;73710;49.968;8.338;2024-02-04T09:09:45;101461.00;;;10.40;100.00
83733;BME280;73710;49.968;8.338;2024-02-04T09:12:10;101473.38;;;10.37;100.00
83733;BME280;73710;49.968;8.338;2024-02-04T09:14:36;101485.56;;;10.39;100.00
83733;BME280;73710;49.968;8.338;2024-02-04T09:17:05;101503.84;;;10.44;100.00
83733;BME280;73710;49.968;8.338;2024-02-04T09:19:31;101494.84;;;10.49;100.00
83733;BME280;73710;49.968;8.338;2024-02-04T09:21:57;101492.88;;;10.56;100.00
83733;BME280;73710;49.968;8.338;2024-02-04T09:24:22;101484.91;;;10.57;100.00
83733;BME280;73710;49.968;8.338;2024-02-04T09:26:47;101472.47;;;10.62;100.00
83733;BME280;73710;49.968;8.338;2024-02-04T09:29:13;101477.63;;;10.89;98.34
83733;BME280;73710;49.968;8.338;2024-02-04T09:31:38;101474.03;;;10.91;97.75
83733;BME280;73710;49.968;8.338;2024-02-04T09:34:04;101477.63;;;11.12;96.58
83733;BME280;73710;49.968;8.338;2024-02-04T09:36:29;101502.31;;;11.31;94.18
83733;BME280;73710;49.968;8.338;2024-02-04T09:38:55;101487.91;;;11.18;95.06
83733;BME280;73710;49.968;8.338;2024-02-04T09:41:21;101484.97;;;11.25;94.52
83733;BME280;73710;49.968;8.338;2024-02-04T09:43:49;101490.66;;;11.15;94.49
83733;BME280;73710;49.968;8.338;2024-02-04T09:46:16;101476.44;;;11.19;95.07
83733;BME280;73710;49.968;8.338;2024-02-04T09:48:44;101479.19;;;11.39;93.49
83733;BME280;73710;49.968;8.338;2024-02-04T09:51:10;101471.16;;;11.20;94.11
83733;BME280;73710;49.968;8.338;2024-02-04T09:53:36;101482.97;;;11.32;93.51
83733;BME280;73710;49.968;8.338;2024-02-04T09:56:05;101471.09;;;10.99;95.75
83733;BME280;73710;49.968;8.338;2024-02-04T09:58:32;101466.72;;;11.21;95.55
83733;BME280;73710;49.968;8.338;2024-02-04T10:00:59;101477.63;;;11.12;94.87
83733;BME280;73710;49.968;8.338;2024-02-04T10:03:26;101483.63;;;11.15;95.18
83733;BME280;73710;49.968;8.338;2024-02-04T10:05:51;101487.94;;;10.95;95.51
83733;BME280;73710;49.968;8.338;2024-02-04T10:08:17;101491.97;;;10.80;97.26
83733;BME280;73710;49.968;8.338;2024-02-04T10:10:43;101490.06;;;10.85;96.94
83733;BME280;73710;49.968;8.338;2024-02-04T10:13:09;101490.91;;;10.86;97.86
83733;BME280;73710;49.968;8.338;2024-02-04T10:15:35;101487.34;;;10.87;97.46
83733;BME280;73710;49.968;8.338;2024-02-04T10:18:04;101498.69;;;10.89;97.38
83733;BME280;73710;49.968;8.338;2024-02-04T10:20:30;101493.00;;;10.76;98.35
83733;BME280;73710;49.968;8.338;2024-02-04T10:22:56;101484.44;;;10.71;98.33
83733;BME280;73710;49.968;8.338;2024-02-04T10:25:21;101491.88;;;10.83;98.60
83733;BME280;73710;49.968;8.338;2024-02-04T10:27:47;101483.69;;;10.91;97.46
83733;BME280;73710;49.968;8.338;2024-02-04T10:30:13;101504.75;;;10.91;96.88
83733;BME280;73710;49.968;8.338;2024-02-04T10:32:39;101488.69;;;10.75;98.26
83733;BME280;73710;49.968;8.338;2024-02-04T10:35:05;101492.94;;;10.78;98.37
83733;BME280;73710;49.968;8.338;2024-02-04T10:37:30;101488.97;;;10.91;97.34
83733;BME280;73710;49.968;8.338;2024-02-04T10:39:56;101489.25;;;10.83;97.14
83733;BME280;73710;49.968;8.338;2024-02-04T10:42:24;101481.41;;;11.05;96.66
83733;BME280;73710;49.968;8.338;2024-02-04T10:44:52;101483.56;;;11.17;95.56
83733;BME280;73710;49.968;8.338;2024-02-04T10:47:22;101474.75;;;11.18;95.69
83733;BME280;73710;49.968;8.338;2024-02-04T10:49:52;101473.56;;;11.25;94.93
83733;BME280;73710;49.968;8.338;2024-02-04T10:52:22;101480.38;;;11.75;91.72
83733;BME280;73710;49.968;8.338;2024-02-04T10:54:49;101473.13;;;11.80;90.94
83733;BME280;73710;49.968;8.338;2024-02-04T10:57:19;101487.78;;;11.66;90.84
83733;BME280;73710;49.968;8.338;2024-02-04T10:59:46;101478.38;;;11.80;90.78
83733;BME280;73710;49.968;8.338;2024-02-04T11:02:15;101477.41;;;11.83;90.32
83733;BME280;73710;49.968;8.338;2024-02-04T11:04:41;101466.75;;;11.42;92.39
83733;BME280;73710;49.968;8.338;2024-02-04T11:07:08;101464.28;;;11.16;94.41
83733;BME280;73710;49.968;8.338;2024-02-04T11:09:36;101453.81;;;11.36;94.10
83733;BME280;73710;49.968;8.338;2024-02-04T11:12:04;101451.47;;;11.29;95.13
83733;BME280;73710;49.968;8.338;2024-02-04T11:14:31;101438.63;;;11.43;94.22
83733;BME280;73710;49.968;8.338;2024-02-04T11:17:16;101437.31;;;11.31;94.80
83733;BME280;73710;49.968;8.338;2024-02-04T11:27:51;101406.75;;;11.91;93.18
83733;BME280;73710;49.968;8.338;2024-02-04T11:30:17;101422.91;;;12.03;90.93
83733;BME280;73710;49.968;8.338;2024-02-04T11:32:43;101427.81;;;12.12;89.38
83733;BME280;73710;49.968;8.338;2024-02-04T11:35:08;101425.81;;;11.77;90.86
83733;BME280;73710;49.968;8.338;2024-02-04T11:37:37;101418.97;;;11.73;92.28
83733;BME280;73710;49.968;8.338;2024-02-04T11:40:03;101420.81;;;11.71;92.55
83733;BME280;73710;49.968;8.338;2024-02-04T11:42:33;101420.13;;;11.44;93.55
83733;BME280;73710;49.968;8.338;2024-02-04T11:45:09;101419.19;;;11.45;94.63
83733;BME280;73710;49.968;8.338;2024-02-04T11:47:34;101417.84;;;11.35;94.80
83733;BME280;73710;49.968;8.338;2024-02-04T11:50:02;101429.31;;;11.34;95.45
83733;BME280;73710;49.968;8.338;2024-02-04T11:52:28;101427.66;;;11.32;95.54
83733;BME280;73710;49.968;8.338;2024-02-04T11:54:54;101419.13;;;11.25;95.21
83733;BME280;73710;49.968;8.338;2024-02-04T11:57:20;101419.00;;;11.07;96.67
83733;BME280;73710;49.968;8.338;2024-02-04T11:59:46;101425.19;;;11.06;96.86
83733;BME280;73710;49.968;8.338;2024-02-04T12:02:13;101431.91;;;11.13;96.41
83733;BME280;73710;49.968;8.338;2024-02-04T12:04:41;101431.91;;;11.13;96.26
83733;BME280;73710;49.968;8.338;2024-02-04T12:07:07;101432.41;;;11.01;97.17
83733;BME280;73710;49.968;8.338;2024-02-04T12:09:34;101408.38;;;11.10;97.30
83733;BME280;73710;49.968;8.338;2024-02-04T12:12:00;101396.91;;;11.11;96.28
83733;BME280;73710;49.968;8.338;2024-02-04T12:14:25;101392.97;;;11.21;96.34
83733;BME280;73710;49.968;8.338;2024-02-04T12:16:51;101401.94;;;11.38;95.28
83733;BME280;73710;49.968;8.338;2024-02-04T12:19:17;101399.41;;;11.57;94.23
83733;BME280;73710;49.968;8.338;2024-02-04T12:21:43;101399.19;;;11.83;92.73
83733;BME280;73710;49.968;8.338;2024-02-04T12:24:08;101381.34;;;11.90;91.81
83733;BME280;73710;49.968;8.338;2024-02-04T12:26:33;101390.16;;;11.89;92.12
83733;BME280;73710;49.968;8.338;2024-02-04T12:29:00;101399.78;;;11.90;91.70
83733;BME280;73710;49.968;8.338;2024-02-04T12:31:26;101385.66;;;11.71;92.34
83733;BME280;73710;49.968;8.338;2024-02-04T12:33:58;101376.63;;;11.76;92.51
83733;BME280;73710;49.968;8.338;2024-02-04T12:36:31;101386.34;;;11.54;93.27
83733;BME280;73710;49.968;8.338;2024-02-04T12:38:58;101381.69;;;11.61;92.59
83733;BME280;73710;49.968;8.338;2024-02-04T12:41:25;101370.41;;;11.57;93.32
83733;BME280;73710;49.968;8.338;2024-02-04T12:43:53;101373.09;;;11.55;93.17
83733;BME280;73710;49.968;8.338;2024-02-04T12:46:19;101373.09;;;11.55;93.52
83733;BME280;73710;49.968;8.338;2024-02-04T12:48:50;101363.22;;;11.40;94.37
83733;BME280;73710;49.968;8.338;2024-02-04T12:51:26;101370.81;;;11.26;95.30
83733;BME280;73710;49.968;8.338;2024-02-04T12:54:05;101354.47;;;11.18;96.66
83733;BME280;73710;49.968;8.338;2024-02-04T12:56:47;101366.16;;;11.11;97.19
83733;BME280;73710;49.968;8.338;2024-02-04T12:59:33;101358.34;;;11.10;97.57
83733;BME280;73710;49.968;8.338;2024-02-04T13:02:06;101370.16;;;11.00;97.88
83733;BME280;73710;49.968;8.338;2024-02-04T13:04:38;101362.84;;;11.06;98.01
83733;BME280;73710;49.968;8.338;2024-02-04T13:07:08;101367.69;;;11.17;96.79
83733;BME280;73710;49.968;8.338;2024-02-04T13:09:44;101354.25;;;11.23;97.31
83733;BME280;73710;49.968;8.338;2024-02-04T13:12:10;101350.91;;;11.41;96.15
83733;BME280;73710;49.968;8.338;2024-02-04T13:14:39;101358.81;;;11.19;96.34
83733;BME280;73710;49.968;8.338;2024-02-04T13:17:05;101365.06;;;11.17;96.93
83733;BME280;73710;49.968;8.338;2024-02-04T13:19:38;101367.28;;;11.06;97.23
83733;BME280;73710;49.968;8.338;2024-02-04T13:22:04;101358.59;;;11.04;97.85
83733;BME280;73710;49.968;8.338;2024-02-04T13:24:31;101345.81;;;11.15;97.37
83733;BME280;73710;49.968;8.338;2024-02-04T13:26:57;101363.47;;;11.13;97.02
83733;BME280;73710;49.968;8.338;2024-02-04T13:29:22;101346.94;;;11.09;97.44
83733;BME280;73710;49.968;8.338;2024-02-04T13:31:48;101344.22;;;11.11;97.17
83733;BME280;73710;49.968;8.338;2024-02-04T13:34:13;101340.69;;;11.12;97.24
83733;BME280;73710;49.968;8.338;2024-02-04T13:36:39;101336.22;;;11.14;96.88
83733;BME280;73710;49.968;8.338;2024-02-04T13:39:04;101333.34;;;11.20;96.70
83733;BME280;73710;49.968;8.338;2024-02-04T13:41:31;101338.47;;;11.23;96.66
83733;BME280;73710;49.968;8.338;2024-02-04T13:43:57;101330.19;;;11.32;95.79
83733;BME280;73710;49.968;8.338;2024-02-04T13:46:22;101336.38;;;11.31;95.83
83733;BME280;73710;49.968;8.338;2024-02-04T13:48:47;101328.53;;;11.29;95.63
83733;BME280;73710;49.968;8.338;2024-02-04T13:51:13;101334.69;;;11.30;95.60
83733;BME280;73710;49.968;8.338;2024-02-04T13:53:38;101327.13;;;11.21;95.76
83733;BME280;73710;49.968;8.338;2024-02-04T13:56:04;101335.72;;;11.26;95.60
83733;BME280;73710;49.968;8.338;2024-02-04T13:58:29;101343.00;;;11.19;96.21
83733;BME280;73710;49.968;8.338;2024-02-04T14:00:55;101341.34;;;11.17;95.58
83733;BME280;73710;49.968;8.338;2024-02-04T14:03:20;101342.22;;;11.17;96.33
83733;BME280;73710;49.968;8.338;2024-02-04T14:05:45;101344.78;;;11.19;96.07
83733;BME280;73710;49.968;8.338;2024-02-04T14:08:11;101341.50;;;11.14;96.15
83733;BME280;73710;49.968;8.338;2024-02-04T14:10:36;101350.13;;;11.17;96.31
83733;BME280;73710;49.968;8.338;2024-02-04T14:13:02;101348.53;;;11.13;96.34
83733;BME280;73710;49.968;8.338;2024-02-04T14:15:28;101347.31;;;11.22;96.50
83733;BME280;73710;49.968;8.338;2024-02-04T14:17:54;101333.09;;;11.26;96.01
83733;BME280;73710;49.968;8.338;2024-02-04T14:20:19;101350.53;;;11.28;95.73
83733;BME280;73710;49.968;8.338;2024-02-04T14:22:44;101357.25;;;11.35;95.42
83733;BME280;73710;49.968;8.338;2024-02-04T14:25:10;101352.75;;;11.39;94.85
83733;BME280;73710;49.968;8.338;2024-02-04T14:27:36;101355.16;;;11.43;94.89
83733;BME280;73710;49.968;8.338;2024-02-04T14:30:02;101343.00;;;11.41;94.29
83733;BME280;73710;49.968;8.338;2024-02-04T14:32:28;101346.44;;;11.43;93.61
83733;BME280;73710;49.968;8.338;2024-02-04T14:34:53;101354.06;;;11.49;93.60
83733;BME280;73710;49.968;8.338;2024-02-04T14:37:19;101353.75;;;11.57;92.79
83733;BME280;73710;49.968;8.338;2024-02-04T14:39:45;101356.56;;;11.52;93.01
83733;BME280;73710;49.968;8.338;2024-02-04T14:42:10;101358.22;;;11.54;93.01
83733;BME280;73710;49.968;8.338;2024-02-04T14:44:36;101350.38;;;11.53;93.20
83733;BME280;73710;49.968;8.338;2024-02-04T14:47:01;101340.50;;;11.58;92.77
83733;BME280;73710;49.968;8.338;2024-02-04T14:49:26;101340.75;;;11.52;92.85
83733;BME280;73710;49.968;8.338;2024-02-04T14:51:52;101346.97;;;11.51;93.51
83733;BME280;73710;49.968;8.338;2024-02-04T14:54:18;101349.59;;;11.51;93.97
83733;BME280;73710;49.968;8.338;2024-02-04T14:56:43;101346.47;;;11.41;94.59
83733;BME280;73710;49.968;8.338;2024-02-04T14:59:11;101343.25;;;11.35;95.10
83733;BME280;73710;49.968;8.338;2024-02-04T15:01:38;101345.03;;;11.34;95.29
83733;BME280;73710;49.968;8.338;2024-02-04T15:04:04;101331.91;;;11.33;95.33
83733;BME280;73710;49.968;8.338;2024-02-04T15:06:30;101338.97;;;11.32;94.91
83733;BME280;73710;49.968;8.338;2024-02-04T15:08:56;101339.25;;;11.25;95.53
83733;BME280;73710;49.968;8.338;2024-02-04T15:11:23;101338.47;;;11.23;95.71
83733;BME280;73710;49.968;8.338;2024-02-04T15:13:48;101345.47;;;11.24;95.56
83733;BME280;73710;49.968;8.338;2024-02-04T15:16:14;101346.38;;;11.23;95.78
83733;BME280;73710;49.968;8.338;2024-02-04T15:18:39;101345.72;;;11.18;95.63
83733;BME280;73710;49.968;8.338;2024-02-04T15:21:06;101350.84;;;11.21;96.10
83733;BME280;73710;49.968;8.338;2024-02-04T15:23:31;101343.88;;;11.20;96.91
83733;BME280;73710;49.968;8.338;2024-02-04T15:25:57;101335.84;;;11.23;96.42
83733;BME280;73710;49.968;8.338;2024-02-04T15:28:24;101338.59;;;11.20;96.90
83733;BME280;73710;49.968;8.338;2024-02-04T15:30:50;101344.75;;;11.20;96.17
83733;BME280;73710;49.968;8.338;2024-02-04T15:33:15;101342.09;;;11.20;96.83
83733;BME280;73710;49.968;8.338;2024-02-04T15:35:41;101349.13;;;11.20;96.31
83733;BME280;73710;49.968;8.338;2024-02-04T15:38:07;101350.97;;;11.18;96.52
83733;BME280;73710;49.968;8.338;2024-02-04T15:40:32;101350.84;;;11.21;96.24
83733;BME280;73710;49.968;8.338;2024-02-04T15:42:58;101345.03;;;11.13;97.02
83733;BME280;73710;49.968;8.338;2024-02-04T15:45:26;101337.03;;;11.16;96.88
83733;BME280;73710;49.968;8.338;2024-02-04T15:47:52;101342.41;;;11.13;96.50
83733;BME280;73710;49.968;8.338;2024-02-04T15:50:19;101345.00;;;11.14;96.30
83733;BME280;73710;49.968;8.338;2024-02-04T15:52:45;101347.56;;;11.16;95.55
83733;BME280;73710;49.968;8.338;2024-02-04T15:55:11;101351.09;;;11.15;96.09
83733;BME280;73710;49.968;8.338;2024-02-04T15:57:39;101341.41;;;11.15;95.81
83733;BME280;73710;49.968;8.338;2024-02-04T16:00:05;101344.13;;;11.14;96.07
83733;BME280;73710;49.968;8.338;2024-02-04T16:02:37;101340.78;;;11.10;95.84
83733;BME280;73710;49.968;8.338;2024-02-04T16:05:03;101327.63;;;11.09;96.32
83733;BME280;73710;49.968;8.338;2024-02-04T16:07:29;101322.50;;;11.06;96.29
83733;BME280;73710;49.968;8.338;2024-02-04T16:09:54;101323.50;;;11.03;96.42
83733;BME280;73710;49.968;8.338;2024-02-04T16:12:21;101330.66;;;11.00;96.61
83733;BME280;73710;49.968;8.338;2024-02-04T16:14:51;101320.25;;;10.97;96.84
83733;BME280;73710;49.968;8.338;2024-02-04T16:17:18;101325.66;;;10.94;97.42
83733;BME280;73710;49.968;8.338;2024-02-04T16:19:44;101322.94;;;10.95;97.13
83733;BME280;73710;49.968;8.338;2024-02-04T16:22:10;101316.97;;;10.92;97.33
83733;BME280;73710;49.968;8.338;2024-02-04T16:24:35;101328.44;;;10.89;97.52
83733;BME280;73710;49.968;8.338;2024-02-04T16:27:01;101335.47;;;10.89;97.39
83733;BME280;73710;49.968;8.338;2024-02-04T16:29:27;101328.56;;;10.86;97.57
83733;BME280;73710;49.968;8.338;2024-02-04T16:31:55;101346.88;;;10.89;97.34
83733;BME280;73710;49.968;8.338;2024-02-04T16:34:21;101337.22;;;10.90;97.33
83733;BME280;73710;49.968;8.338;2024-02-04T16:36:47;101333.09;;;10.83;98.12
83733;BME280;73710;49.968;8.338;2024-02-04T16:39:13;101342.59;;;10.87;97.63
83733;BME280;73710;49.968;8.338;2024-02-04T16:41:39;101347.06;;;10.85;98.11
83733;BME280;73710;49.968;8.338;2024-02-04T16:44:05;101346.44;;;10.78;98.49
83733;BME280;73710;49.968;8.338;2024-02-04T16:46:30;101338.38;;;10.83;98.11
83733;BME280;73710;49.968;8.338;2024-02-04T16:48:56;101334.06;;;10.80;98.37
83733;BME280;73710;49.968;8.338;2024-02-04T16:51:21;101331.75;;;10.73;98.88
83733;BME280;73710;49.968;8.338;2024-02-04T16:53:47;101330.16;;;10.68;99.38
83733;BME280;73710;49.968;8.338;2024-02-04T16:56:18;101336.31;;;10.67;99.55
83733;BME280;73710;49.968;8.338;2024-02-04T16:58:43;101341.47;;;10.70;99.27
83733;BME280;73710;49.968;8.338;2024-02-04T17:01:09;101350.28;;;10.69;99.40
83733;BME280;73710;49.968;8.338;2024-02-04T17:03:34;101346.81;;;10.69;99.00
83733;BME280;73710;49.968;8.338;2024-02-04T17:06:00;101340.59;;;10.70;99.04
83733;BME280;73710;49.968;8.338;2024-02-04T17:08:26;101344.19;;;10.69;98.97
83733;BME280;73710;49.968;8.338;2024-02-04T17:10:51;101333.66;;;10.69;98.82
83733;BME280;73710;49.968;8.338;2024-02-04T17:13:17;101340.69;;;10.68;98.83
83733;BME280;73710;49.968;8.338;2024-02-04T17:15:43;101337.41;;;10.62;99.78
83733;BME280;73710;49.968;8.338;2024-02-04T17:18:09;101338.28;;;10.62;99.31
83733;BME280;73710;49.968;8.338;2024-02-04T17:20:47;101340.91;;;10.62;99.37
83733;BME280;73710;49.968;8.338;2024-02-04T17:23:18;101348.56;;;10.68;98.55
83733;BME280;73710;49.968;8.338;2024-02-04T17:25:46;101342.28;;;10.73;98.52
83733;BME280;73710;49.968;8.338;2024-02-04T17:28:13;101335.28;;;10.71;98.29
83733;BME280;73710;49.968;8.338;2024-02-04T17:30:39;101342.03;;;10.79;97.81
83733;BME280;73710;49.968;8.338;2024-02-04T17:33:05;101338.66;;;10.75;97.92
83733;BME280;73710;49.968;8.338;2024-02-04T17:35:30;101336.03;;;10.75;97.94
83733;BME280;73710;49.968;8.338;2024-02-04T17:37:58;101337.97;;;10.70;98.49
83733;BME280;73710;49.968;8.338;2024-02-04T17:40:24;101336.38;;;10.66;98.50
83733;BME280;73710;49.968;8.338;2024-02-04T17:42:51;101347.78;;;10.66;98.60
83733;BME280;73710;49.968;8.338;2024-02-04T17:45:16;101336.22;;;10.70;98.23
83733;BME280;73710;49.968;8.338;2024-02-04T17:47:42;101333.59;;;10.70;98.01
83733;BME280;73710;49.968;8.338;2024-02-04T17:50:08;101344.41;;;10.63;98.67
83733;BME280;73710;49.968;8.338;2024-02-04T17:52:34;101341.72;;;10.64;98.38
83733;BME280;73710;49.968;8.338;2024-02-04T17:55:01;101344.22;;;10.67;98.01
83733;BME280;73710;49.968;8.338;2024-02-04T17:57:26;101330.31;;;10.64;98.47
83733;BME280;73710;49.968;8.338;2024-02-04T17:59:52;101332.09;;;10.63;98.31